sensor_id;sensor_type;location;lat;lon;timestamp;temperature;humidity
42989;DHT22;28622;43.716;20.668;2022-07-18T00:02:23;16.70;99.90
42989;DHT22;28622;43.716;20.668;2022-07-18T00:04:51;16.70;99.90
42989;DHT22;28622;43.716;20.668;2022-07-18T00:07:18;16.70;99.90
42989;DHT22;28622;43.716;20.668;2022-07-18T00:09:44;16.60;99.90
42989;DHT22;28622;43.716;20.668;2022-07-18T00:12:11;16.60;99.90
42989;DHT22;28622;43.716;20.668;2022-07-18T00:14:37;16.60;99.90
42989;DHT22;28622;43.716;20.668;2022-07-18T00:17:05;16.60;99.90
42989;DHT22;28622;43.716;20.668;2022-07-18T00:19:31;16.60;99.90
42989;DHT22;28622;43.716;20.668;2022-07-18T00:21:57;16.60;99.90
42989;DHT22;28622;43.716;20.668;2022-07-18T00:24:22;16.60;99.90
42989;DHT22;28622;43.716;20.668;2022-07-18T00:26:48;16.50;99.90
42989;DHT22;28622;43.716;20.668;2022-07-18T00:29:14;16.40;99.90
42989;DHT22;28622;43.716;20.668;2022-07-18T00:31:40;16.40;99.90
42989;DHT22;28622;43.716;20.668;2022-07-18T00:34:06;16.30;99.90
42989;DHT22;28622;43.716;20.668;2022-07-18T00:36:32;16.30;99.90
42989;DHT22;28622;43.716;20.668;2022-07-18T00:38:58;16.20;99.90
42989;DHT22;28622;43.716;20.668;2022-07-18T00:41:24;16.20;99.90
42989;DHT22;28622;43.716;20.668;2022-07-18T00:43:51;16.10;99.90
42989;DHT22;28622;43.716;20.668;2022-07-18T00:46:21;16.10;99.90
42989;DHT22;28622;43.716;20.668;2022-07-18T00:48:47;16.00;99.90
42989;DHT22;28622;43.716;20.668;2022-07-18T00:51:13;15.90;99.90
42989;DHT22;28622;43.716;20.668;2022-07-18T00:53:39;15.80;99.90
42989;DHT22;28622;43.716;20.668;2022-07-18T00:56:05;15.60;99.90
42989;DHT22;28622;43.716;20.668;2022-07-18T00:58:32;15.60;99.90
42989;DHT22;28622;43.716;20.668;2022-07-18T01:00:58;15.50;99.90
42989;DHT22;28622;43.716;20.668;2022-07-18T01:06:08;15.30;99.90
42989;DHT22;28622;43.716;20.668;2022-07-18T01:08:34;15.30;99.90
42989;DHT22;28622;43.716;20.668;2022-07-18T01:11:01;15.40;99.90
42989;DHT22;28622;43.716;20.668;2022-07-18T01:13:27;15.40;99.90
42989;DHT22;28622;43.716;20.668;2022-07-18T01:15:52;15.40;99.90
42989;DHT22;28622;43.716;20.668;2022-07-18T01:18:18;15.40;99.90
42989;DHT22;28622;43.716;20.668;2022-07-18T01:20:44;15.40;99.90
42989;DHT22;28622;43.716;20.668;2022-07-18T01:23:10;15.40;99.90
42989;DHT22;28622;43.716;20.668;2022-07-18T01:25:35;15.40;99.90
42989;DHT22;28622;43.716;20.668;2022-07-18T01:28:01;15.40;99.90
42989;DHT22;28622;43.716;20.668;2022-07-18T01:30:27;15.40;99.90
42989;DHT22;28622;43.716;20.668;2022-07-18T01:33:00;15.40;99.90
42989;DHT22;28622;43.716;20.668;2022-07-18T01:35:27;15.30;99.90
42989;DHT22;28622;43.716;20.668;2022-07-18T01:37:56;15.30;99.90
42989;DHT22;28622;43.716;20.668;2022-07-18T01:40:22;15.30;99.90
42989;DHT22;28622;43.716;20.668;2022-07-18T01:42:49;15.20;99.90
42989;DHT22;28622;43.716;20.668;2022-07-18T01:45:17;15.20;99.90
42989;DHT22;28622;43.716;20.668;2022-07-18T01:47:43;15.20;99.90
42989;DHT22;28622;43.716;20.668;2022-07-18T01:50:10;15.10;99.90
42989;DHT22;28622;43.716;20.668;2022-07-18T01:52:37;15.10;99.90
42989;DHT22;28622;43.716;20.668;2022-07-18T01:55:04;15.10;99.90
42989;DHT22;28622;43.716;20.668;2022-07-18T01:57:31;15.00;99.90
42989;DHT22;28622;43.716;20.668;2022-07-18T01:59:57;15.00;99.90
42989;DHT22;28622;43.716;20.668;2022-07-18T02:02:22;14.90;99.90
42989;DHT22;28622;43.716;20.668;2022-07-18T02:07:37;14.90;99.90
42989;DHT22;28622;43.716;20.668;2022-07-18T02:10:20;14.70;99.90
42989;DHT22;28622;43.716;20.668;2022-07-18T02:12:46;14.60;99.90
42989;DHT22;28622;43.716;20.668;2022-07-18T02:15:14;14.70;99.90
42989;DHT22;28622;43.716;20.668;2022-07-18T02:17:41;14.70;99.90
42989;DHT22;28622;43.716;20.668;2022-07-18T02:20:10;14.60;99.90
42989;DHT22;28622;43.716;20.668;2022-07-18T02:22:36;14.60;99.90
42989;DHT22;28622;43.716;20.668;2022-07-18T02:25:02;14.70;99.90
42989;DHT22;28622;43.716;20.668;2022-07-18T02:27:28;14.60;99.90
42989;DHT22;28622;43.716;20.668;2022-07-18T02:29:54;14.60;99.90
42989;DHT22;28622;43.716;20.668;2022-07-18T02:34:48;14.50;99.90
42989;DHT22;28622;43.716;20.668;2022-07-18T02:37:15;14.50;99.90
42989;DHT22;28622;43.716;20.668;2022-07-18T02:39:41;14.50;99.90
42989;DHT22;28622;43.716;20.668;2022-07-18T02:42:06;14.50;99.90
42989;DHT22;28622;43.716;20.668;2022-07-18T02:44:32;14.50;99.90
42989;DHT22;28622;43.716;20.668;2022-07-18T02:46:58;14.50;99.90
42989;DHT22;28622;43.716;20.668;2022-07-18T02:49:25;14.50;99.90
42989;DHT22;28622;43.716;20.668;2022-07-18T02:52:04;14.50;99.90
42989;DHT22;28622;43.716;20.668;2022-07-18T02:54:33;14.50;99.90
42989;DHT22;28622;43.716;20.668;2022-07-18T02:56:59;14.40;99.90
42989;DHT22;28622;43.716;20.668;2022-07-18T02:59:25;14.40;99.90
42989;DHT22;28622;43.716;20.668;2022-07-18T03:01:53;14.40;99.90
42989;DHT22;28622;43.716;20.668;2022-07-18T03:04:19;14.40;99.90
42989;DHT22;28622;43.716;20.668;2022-07-18T03:06:46;14.40;99.90
42989;DHT22;28622;43.716;20.668;2022-07-18T03:09:12;14.40;99.90
42989;DHT22;28622;43.716;20.668;2022-07-18T03:11:38;14.30;99.90
42989;DHT22;28622;43.716;20.668;2022-07-18T03:14:04;14.20;99.90
42989;DHT22;28622;43.716;20.668;2022-07-18T03:18:55;14.10;99.90
42989;DHT22;28622;43.716;20.668;2022-07-18T03:21:21;14.00;99.90
42989;DHT22;28622;43.716;20.668;2022-07-18T03:23:47;14.00;99.90
42989;DHT22;28622;43.716;20.668;2022-07-18T03:26:13;13.80;99.90
42989;DHT22;28622;43.716;20.668;2022-07-18T03:28:38;13.80;99.90
42989;DHT22;28622;43.716;20.668;2022-07-18T03:31:04;13.80;99.90
42989;DHT22;28622;43.716;20.668;2022-07-18T03:33:30;13.70;99.90
42989;DHT22;28622;43.716;20.668;2022-07-18T03:35:56;13.10;99.90
42989;DHT22;28622;43.716;20.668;2022-07-18T03:40:48;13.50;99.90
42989;DHT22;28622;43.716;20.668;2022-07-18T03:43:14;13.40;99.90
42989;DHT22;28622;43.716;20.668;2022-07-18T03:45:40;13.40;99.90
42989;DHT22;28622;43.716;20.668;2022-07-18T03:48:06;13.50;99.90
42989;DHT22;28622;43.716;20.668;2022-07-18T03:50:32;13.60;99.90
42989;DHT22;28622;43.716;20.668;2022-07-18T03:52:59;13.60;99.90
42989;DHT22;28622;43.716;20.668;2022-07-18T03:55:25;13.70;99.90
42989;DHT22;28622;43.716;20.668;2022-07-18T03:57:51;13.80;99.90
42989;DHT22;28622;43.716;20.668;2022-07-18T04:00:18;13.90;99.90
42989;DHT22;28622;43.716;20.668;2022-07-18T04:02:46;13.90;99.90
42989;DHT22;28622;43.716;20.668;2022-07-18T04:05:13;14.00;99.90
42989;DHT22;28622;43.716;20.668;2022-07-18T04:07:39;14.00;99.90
42989;DHT22;28622;43.716;20.668;2022-07-18T04:12:32;14.30;99.90
42989;DHT22;28622;43.716;20.668;2022-07-18T04:14:58;14.40;99.90
42989;DHT22;28622;43.716;20.668;2022-07-18T04:17:24;14.50;99.90
42989;DHT22;28622;43.716;20.668;2022-07-18T04:19:50;14.60;99.90
42989;DHT22;28622;43.716;20.668;2022-07-18T04:22:16;14.60;99.90
42989;DHT22;28622;43.716;20.668;2022-07-18T04:24:42;14.70;99.90
42989;DHT22;28622;43.716;20.668;2022-07-18T04:27:08;14.70;99.90
42989;DHT22;28622;43.716;20.668;2022-07-18T04:29:33;14.80;99.90
42989;DHT22;28622;43.716;20.668;2022-07-18T04:32:01;14.90;99.90
42989;DHT22;28622;43.716;20.668;2022-07-18T04:34:27;15.00;99.90
42989;DHT22;28622;43.716;20.668;2022-07-18T04:36:53;15.10;99.90
42989;DHT22;28622;43.716;20.668;2022-07-18T04:39:18;15.10;99.90
42989;DHT22;28622;43.716;20.668;2022-07-18T04:41:44;15.20;99.90
42989;DHT22;28622;43.716;20.668;2022-07-18T04:44:13;15.30;99.90
42989;DHT22;28622;43.716;20.668;2022-07-18T04:46:39;15.40;99.90
42989;DHT22;28622;43.716;20.668;2022-07-18T04:49:04;15.40;99.90
42989;DHT22;28622;43.716;20.668;2022-07-18T04:51:30;15.50;99.90
42989;DHT22;28622;43.716;20.668;2022-07-18T04:53:56;15.70;99.90
42989;DHT22;28622;43.716;20.668;2022-07-18T04:56:22;15.80;99.90
42989;DHT22;28622;43.716;20.668;2022-07-18T04:58:48;15.90;99.90
42989;DHT22;28622;43.716;20.668;2022-07-18T05:01:14;15.70;99.90
42989;DHT22;28622;43.716;20.668;2022-07-18T05:03:40;15.70;99.90
42989;DHT22;28622;43.716;20.668;2022-07-18T05:06:05;15.80;99.90
42989;DHT22;28622;43.716;20.668;2022-07-18T05:08:31;16.00;99.90
42989;DHT22;28622;43.716;20.668;2022-07-18T05:10:57;16.20;99.90
42989;DHT22;28622;43.716;20.668;2022-07-18T05:13:23;16.30;99.90
42989;DHT22;28622;43.716;20.668;2022-07-18T05:15:49;16.50;99.90
42989;DHT22;28622;43.716;20.668;2022-07-18T05:18:15;16.60;99.90
42989;DHT22;28622;43.716;20.668;2022-07-18T05:20:40;16.70;99.90
42989;DHT22;28622;43.716;20.668;2022-07-18T05:23:06;16.80;99.90
42989;DHT22;28622;43.716;20.668;2022-07-18T05:25:32;16.80;99.90
42989;DHT22;28622;43.716;20.668;2022-07-18T05:27:58;17.00;99.90
42989;DHT22;28622;43.716;20.668;2022-07-18T05:30:24;17.10;99.90
42989;DHT22;28622;43.716;20.668;2022-07-18T05:32:50;17.20;99.90
42989;DHT22;28622;43.716;20.668;2022-07-18T05:35:17;17.30;99.90
42989;DHT22;28622;43.716;20.668;2022-07-18T05:37:43;17.50;99.90
42989;DHT22;28622;43.716;20.668;2022-07-18T05:40:11;17.60;99.90
42989;DHT22;28622;43.716;20.668;2022-07-18T05:42:37;17.70;99.90
42989;DHT22;28622;43.716;20.668;2022-07-18T05:45:04;17.90;99.90
42989;DHT22;28622;43.716;20.668;2022-07-18T05:47:30;18.00;99.90
42989;DHT22;28622;43.716;20.668;2022-07-18T05:49:56;18.10;98.90
42989;DHT22;28622;43.716;20.668;2022-07-18T05:52:22;18.30;99.20
42989;DHT22;28622;43.716;20.668;2022-07-18T05:54:48;18.50;97.20
42989;DHT22;28622;43.716;20.668;2022-07-18T05:57:13;18.70;96.20
42989;DHT22;28622;43.716;20.668;2022-07-18T05:59:39;18.80;94.40
42989;DHT22;28622;43.716;20.668;2022-07-18T06:02:05;19.00;93.60
42989;DHT22;28622;43.716;20.668;2022-07-18T06:04:31;19.20;94.10
42989;DHT22;28622;43.716;20.668;2022-07-18T06:06:56;19.50;93.80
42989;DHT22;28622;43.716;20.668;2022-07-18T06:09:22;19.80;93.60
42989;DHT22;28622;43.716;20.668;2022-07-18T06:11:48;19.90;93.10
42989;DHT22;28622;43.716;20.668;2022-07-18T06:14:14;20.10;90.60
42989;DHT22;28622;43.716;20.668;2022-07-18T06:16:40;20.10;91.80
42989;DHT22;28622;43.716;20.668;2022-07-18T06:19:07;20.20;91.60
42989;DHT22;28622;43.716;20.668;2022-07-18T06:21:32;20.30;91.20
42989;DHT22;28622;43.716;20.668;2022-07-18T06:23:58;20.50;90.30
42989;DHT22;28622;43.716;20.668;2022-07-18T06:26:24;20.60;90.60
42989;DHT22;28622;43.716;20.668;2022-07-18T06:28:50;20.90;90.20
42989;DHT22;28622;43.716;20.668;2022-07-18T06:31:16;21.00;90.20
42989;DHT22;28622;43.716;20.668;2022-07-18T06:33:42;21.30;90.80
42989;DHT22;28622;43.716;20.668;2022-07-18T06:36:08;21.70;85.60
42989;DHT22;28622;43.716;20.668;2022-07-18T06:38:38;21.80;85.60
42989;DHT22;28622;43.716;20.668;2022-07-18T06:41:04;22.00;81.00
42989;DHT22;28622;43.716;20.668;2022-07-18T06:43:30;22.00;83.80
42989;DHT22;28622;43.716;20.668;2022-07-18T06:45:56;22.20;83.50
42989;DHT22;28622;43.716;20.668;2022-07-18T06:48:23;22.50;83.80
42989;DHT22;28622;43.716;20.668;2022-07-18T06:50:49;22.80;82.30
42989;DHT22;28622;43.716;20.668;2022-07-18T06:53:15;22.90;79.60
42989;DHT22;28622;43.716;20.668;2022-07-18T06:55:41;23.30;81.30
42989;DHT22;28622;43.716;20.668;2022-07-18T06:58:07;23.50;79.20
42989;DHT22;28622;43.716;20.668;2022-07-18T07:00:33;23.80;77.30
42989;DHT22;28622;43.716;20.668;2022-07-18T07:02:58;23.90;77.60
42989;DHT22;28622;43.716;20.668;2022-07-18T07:05:24;24.20;75.10
42989;DHT22;28622;43.716;20.668;2022-07-18T07:07:50;24.40;76.70
42989;DHT22;28622;43.716;20.668;2022-07-18T07:10:17;24.50;76.30
42989;DHT22;28622;43.716;20.668;2022-07-18T07:12:48;24.70;73.80
42989;DHT22;28622;43.716;20.668;2022-07-18T07:15:17;25.10;74.30
42989;DHT22;28622;43.716;20.668;2022-07-18T07:17:43;25.10;75.30
42989;DHT22;28622;43.716;20.668;2022-07-18T07:20:10;25.30;73.00
42989;DHT22;28622;43.716;20.668;2022-07-18T07:22:46;25.30;70.90
42989;DHT22;28622;43.716;20.668;2022-07-18T07:25:13;25.50;69.10
42989;DHT22;28622;43.716;20.668;2022-07-18T07:27:39;25.70;69.60
42989;DHT22;28622;43.716;20.668;2022-07-18T07:30:07;25.80;67.10
42989;DHT22;28622;43.716;20.668;2022-07-18T07:32:42;25.80;67.00
42989;DHT22;28622;43.716;20.668;2022-07-18T07:35:09;25.90;66.90
42989;DHT22;28622;43.716;20.668;2022-07-18T07:37:42;26.10;69.10
42989;DHT22;28622;43.716;20.668;2022-07-18T07:40:08;26.40;69.00
42989;DHT22;28622;43.716;20.668;2022-07-18T07:42:34;26.90;66.50
42989;DHT22;28622;43.716;20.668;2022-07-18T07:45:00;26.60;62.40
42989;DHT22;28622;43.716;20.668;2022-07-18T07:47:26;26.90;64.50
42989;DHT22;28622;43.716;20.668;2022-07-18T07:49:55;27.00;64.90
42989;DHT22;28622;43.716;20.668;2022-07-18T07:52:20;26.90;63.20
42989;DHT22;28622;43.716;20.668;2022-07-18T07:54:46;27.30;64.20
42989;DHT22;28622;43.716;20.668;2022-07-18T07:57:12;27.30;62.10
42989;DHT22;28622;43.716;20.668;2022-07-18T07:59:38;27.40;63.00
42989;DHT22;28622;43.716;20.668;2022-07-18T08:02:04;27.50;61.80
42989;DHT22;28622;43.716;20.668;2022-07-18T08:04:30;27.40;60.90
42989;DHT22;28622;43.716;20.668;2022-07-18T08:06:56;27.40;60.10
42989;DHT22;28622;43.716;20.668;2022-07-18T08:09:22;27.60;60.80
42989;DHT22;28622;43.716;20.668;2022-07-18T08:11:48;27.80;62.90
42989;DHT22;28622;43.716;20.668;2022-07-18T08:14:13;27.90;61.50
42989;DHT22;28622;43.716;20.668;2022-07-18T08:16:39;28.50;59.00
42989;DHT22;28622;43.716;20.668;2022-07-18T08:19:05;28.50;59.10
42989;DHT22;28622;43.716;20.668;2022-07-18T08:21:31;29.00;59.30
42989;DHT22;28622;43.716;20.668;2022-07-18T08:23:57;29.10;62.10
42989;DHT22;28622;43.716;20.668;2022-07-18T08:26:23;29.50;59.50
42989;DHT22;28622;43.716;20.668;2022-07-18T08:28:49;29.10;56.40
42989;DHT22;28622;43.716;20.668;2022-07-18T08:31:14;28.70;56.60
42989;DHT22;28622;43.716;20.668;2022-07-18T08:33:40;28.90;54.50
42989;DHT22;28622;43.716;20.668;2022-07-18T08:36:06;28.80;55.20
42989;DHT22;28622;43.716;20.668;2022-07-18T08:38:33;29.00;55.70
42989;DHT22;28622;43.716;20.668;2022-07-18T08:41:01;29.30;58.20
42989;DHT22;28622;43.716;20.668;2022-07-18T08:43:26;29.50;57.50
42989;DHT22;28622;43.716;20.668;2022-07-18T08:46:02;29.90;53.70
42989;DHT22;28622;43.716;20.668;2022-07-18T08:48:29;30.00;55.90
42989;DHT22;28622;43.716;20.668;2022-07-18T08:50:55;30.40;52.50
42989;DHT22;28622;43.716;20.668;2022-07-18T08:53:21;30.50;52.50
42989;DHT22;28622;43.716;20.668;2022-07-18T08:55:48;30.80;51.60
42989;DHT22;28622;43.716;20.668;2022-07-18T08:58:14;30.70;55.60
42989;DHT22;28622;43.716;20.668;2022-07-18T09:00:41;31.20;53.50
42989;DHT22;28622;43.716;20.668;2022-07-18T09:03:07;31.30;51.20
42989;DHT22;28622;43.716;20.668;2022-07-18T09:05:33;31.10;52.20
42989;DHT22;28622;43.716;20.668;2022-07-18T09:08:14;31.20;53.10
42989;DHT22;28622;43.716;20.668;2022-07-18T09:10:53;31.20;53.70
42989;DHT22;28622;43.716;20.668;2022-07-18T09:13:23;31.70;54.40
42989;DHT22;28622;43.716;20.668;2022-07-18T09:18:35;31.30;49.60
42989;DHT22;28622;43.716;20.668;2022-07-18T09:21:07;30.90;50.20
42989;DHT22;28622;43.716;20.668;2022-07-18T09:23:34;30.90;50.50
42989;DHT22;28622;43.716;20.668;2022-07-18T09:26:01;30.80;50.30
42989;DHT22;28622;43.716;20.668;2022-07-18T09:28:29;30.90;51.40
42989;DHT22;28622;43.716;20.668;2022-07-18T09:31:20;31.00;50.00
42989;DHT22;28622;43.716;20.668;2022-07-18T09:33:56;31.50;50.00
42989;DHT22;28622;43.716;20.668;2022-07-18T09:36:22;31.20;48.70
42989;DHT22;28622;43.716;20.668;2022-07-18T09:38:48;31.20;52.90
42989;DHT22;28622;43.716;20.668;2022-07-18T09:41:14;31.50;49.80
42989;DHT22;28622;43.716;20.668;2022-07-18T09:43:40;31.30;48.90
42989;DHT22;28622;43.716;20.668;2022-07-18T09:46:07;31.80;49.40
42989;DHT22;28622;43.716;20.668;2022-07-18T09:48:33;32.00;49.60
42989;DHT22;28622;43.716;20.668;2022-07-18T09:51:02;32.70;49.00
42989;DHT22;28622;43.716;20.668;2022-07-18T09:53:39;32.70;47.90
42989;DHT22;28622;43.716;20.668;2022-07-18T09:56:14;32.80;50.80
42989;DHT22;28622;43.716;20.668;2022-07-18T09:58:56;32.60;47.40
42989;DHT22;28622;43.716;20.668;2022-07-18T10:01:22;32.80;47.90
42989;DHT22;28622;43.716;20.668;2022-07-18T10:03:49;33.20;48.10
42989;DHT22;28622;43.716;20.668;2022-07-18T10:06:15;33.10;46.80
42989;DHT22;28622;43.716;20.668;2022-07-18T10:08:41;33.20;48.80
42989;DHT22;28622;43.716;20.668;2022-07-18T10:11:08;33.30;47.60
42989;DHT22;28622;43.716;20.668;2022-07-18T10:13:36;33.10;45.60
42989;DHT22;28622;43.716;20.668;2022-07-18T10:16:03;32.90;45.60
42989;DHT22;28622;43.716;20.668;2022-07-18T10:18:31;33.30;45.80
42989;DHT22;28622;43.716;20.668;2022-07-18T10:29:18;34.60;47.90
42989;DHT22;28622;43.716;20.668;2022-07-18T10:32:04;34.70;45.60
42989;DHT22;28622;43.716;20.668;2022-07-18T10:34:35;34.10;47.40
42989;DHT22;28622;43.716;20.668;2022-07-18T10:39:41;34.40;44.70
42989;DHT22;28622;43.716;20.668;2022-07-18T10:42:13;34.40;44.20
42989;DHT22;28622;43.716;20.668;2022-07-18T10:44:39;34.70;45.70
42989;DHT22;28622;43.716;20.668;2022-07-18T11:03:04;34.10;46.70
42989;DHT22;28622;43.716;20.668;2022-07-18T11:16:04;34.30;44.40
42989;DHT22;28622;43.716;20.668;2022-07-18T11:21:24;33.60;44.50
42989;DHT22;28622;43.716;20.668;2022-07-18T11:24:01;33.60;44.20
42989;DHT22;28622;43.716;20.668;2022-07-18T11:26:28;33.30;47.10
42989;DHT22;28622;43.716;20.668;2022-07-18T11:31:23;32.80;45.70
42989;DHT22;28622;43.716;20.668;2022-07-18T11:33:49;33.20;45.60
42989;DHT22;28622;43.716;20.668;2022-07-18T11:36:17;33.90;44.60
42989;DHT22;28622;43.716;20.668;2022-07-18T11:38:49;34.20;46.50
42989;DHT22;28622;43.716;20.668;2022-07-18T11:41:15;33.70;45.00
42989;DHT22;28622;43.716;20.668;2022-07-18T11:43:43;33.60;43.40
42989;DHT22;28622;43.716;20.668;2022-07-18T11:46:11;33.60;47.00
42989;DHT22;28622;43.716;20.668;2022-07-18T11:48:39;33.50;44.60
42989;DHT22;28622;43.716;20.668;2022-07-18T11:51:16;33.50;43.80
42989;DHT22;28622;43.716;20.668;2022-07-18T11:53:43;33.50;43.50
42989;DHT22;28622;43.716;20.668;2022-07-18T11:56:09;33.50;45.10
42989;DHT22;28622;43.716;20.668;2022-07-18T11:58:37;33.40;43.50
42989;DHT22;28622;43.716;20.668;2022-07-18T12:01:04;33.70;46.80
42989;DHT22;28622;43.716;20.668;2022-07-18T12:03:30;34.00;43.60
42989;DHT22;28622;43.716;20.668;2022-07-18T12:05:56;33.80;42.50
42989;DHT22;28622;43.716;20.668;2022-07-18T12:08:32;33.30;44.60
42989;DHT22;28622;43.716;20.668;2022-07-18T12:11:11;33.20;43.40
42989;DHT22;28622;43.716;20.668;2022-07-18T12:13:53;33.20;43.90
42989;DHT22;28622;43.716;20.668;2022-07-18T12:16:42;33.40;43.90
42989;DHT22;28622;43.716;20.668;2022-07-18T12:19:11;33.70;43.90
42989;DHT22;28622;43.716;20.668;2022-07-18T12:32:23;33.30;44.80
42989;DHT22;28622;43.716;20.668;2022-07-18T12:35:00;33.50;44.60
42989;DHT22;28622;43.716;20.668;2022-07-18T12:37:27;33.60;44.40
42989;DHT22;28622;43.716;20.668;2022-07-18T12:39:58;33.50;43.70
42989;DHT22;28622;43.716;20.668;2022-07-18T12:42:30;33.70;45.90
42989;DHT22;28622;43.716;20.668;2022-07-18T12:44:57;34.00;46.00
42989;DHT22;28622;43.716;20.668;2022-07-18T12:47:23;34.00;45.50
42989;DHT22;28622;43.716;20.668;2022-07-18T12:49:48;33.80;42.50
42989;DHT22;28622;43.716;20.668;2022-07-18T12:52:14;33.60;42.60
42989;DHT22;28622;43.716;20.668;2022-07-18T12:54:40;33.30;42.90
42989;DHT22;28622;43.716;20.668;2022-07-18T12:57:06;33.20;43.70
42989;DHT22;28622;43.716;20.668;2022-07-18T12:59:31;32.90;42.00
42989;DHT22;28622;43.716;20.668;2022-07-18T13:01:57;32.90;40.30
42989;DHT22;28622;43.716;20.668;2022-07-18T13:04:23;33.00;42.50
42989;DHT22;28622;43.716;20.668;2022-07-18T13:06:49;33.30;41.60
42989;DHT22;28622;43.716;20.668;2022-07-18T13:09:14;33.20;42.00
42989;DHT22;28622;43.716;20.668;2022-07-18T13:11:40;33.00;44.30
42989;DHT22;28622;43.716;20.668;2022-07-18T13:14:08;33.00;42.60
42989;DHT22;28622;43.716;20.668;2022-07-18T13:16:34;33.10;43.20
42989;DHT22;28622;43.716;20.668;2022-07-18T13:19:00;33.00;42.10
42989;DHT22;28622;43.716;20.668;2022-07-18T13:21:25;32.80;45.50
42989;DHT22;28622;43.716;20.668;2022-07-18T13:23:52;32.90;42.80
42989;DHT22;28622;43.716;20.668;2022-07-18T13:26:18;32.70;43.70
42989;DHT22;28622;43.716;20.668;2022-07-18T13:28:43;32.50;43.40
42989;DHT22;28622;43.716;20.668;2022-07-18T13:31:09;32.10;43.60
42989;DHT22;28622;43.716;20.668;2022-07-18T13:33:35;32.30;44.20
42989;DHT22;28622;43.716;20.668;2022-07-18T13:36:01;32.60;44.30
42989;DHT22;28622;43.716;20.668;2022-07-18T13:38:27;32.70;42.90
42989;DHT22;28622;43.716;20.668;2022-07-18T13:40:53;32.70;45.90
42989;DHT22;28622;43.716;20.668;2022-07-18T13:43:19;32.80;46.20
42989;DHT22;28622;43.716;20.668;2022-07-18T13:45:45;32.80;44.60
42989;DHT22;28622;43.716;20.668;2022-07-18T13:48:11;33.00;45.10
42989;DHT22;28622;43.716;20.668;2022-07-18T13:50:37;33.10;44.30
42989;DHT22;28622;43.716;20.668;2022-07-18T13:53:02;32.90;42.00
42989;DHT22;28622;43.716;20.668;2022-07-18T13:55:28;32.70;42.30
42989;DHT22;28622;43.716;20.668;2022-07-18T13:57:54;32.60;42.00
42989;DHT22;28622;43.716;20.668;2022-07-18T14:00:20;32.60;42.00
42989;DHT22;28622;43.716;20.668;2022-07-18T14:02:45;32.60;43.80
42989;DHT22;28622;43.716;20.668;2022-07-18T14:05:11;32.80;43.10
42989;DHT22;28622;43.716;20.668;2022-07-18T14:07:37;32.50;41.10
42989;DHT22;28622;43.716;20.668;2022-07-18T14:10:03;32.50;42.80
42989;DHT22;28622;43.716;20.668;2022-07-18T14:12:29;32.50;44.70
42989;DHT22;28622;43.716;20.668;2022-07-18T14:14:54;32.30;42.60
42989;DHT22;28622;43.716;20.668;2022-07-18T14:17:20;32.40;44.30
42989;DHT22;28622;43.716;20.668;2022-07-18T14:19:46;32.40;44.20
42989;DHT22;28622;43.716;20.668;2022-07-18T14:22:11;32.40;43.00
42989;DHT22;28622;43.716;20.668;2022-07-18T14:24:38;32.60;44.20
42989;DHT22;28622;43.716;20.668;2022-07-18T14:27:04;32.40;44.70
42989;DHT22;28622;43.716;20.668;2022-07-18T14:29:30;32.40;45.10
42989;DHT22;28622;43.716;20.668;2022-07-18T14:31:55;32.30;44.70
42989;DHT22;28622;43.716;20.668;2022-07-18T14:34:21;32.10;43.80
42989;DHT22;28622;43.716;20.668;2022-07-18T14:36:47;32.00;43.90
42989;DHT22;28622;43.716;20.668;2022-07-18T14:39:12;31.90;43.30
42989;DHT22;28622;43.716;20.668;2022-07-18T14:41:38;31.90;43.60
42989;DHT22;28622;43.716;20.668;2022-07-18T14:44:04;32.00;45.40
42989;DHT22;28622;43.716;20.668;2022-07-18T14:46:30;32.00;45.70
42989;DHT22;28622;43.716;20.668;2022-07-18T14:48:55;31.90;45.30
42989;DHT22;28622;43.716;20.668;2022-07-18T14:51:21;31.90;46.50
42989;DHT22;28622;43.716;20.668;2022-07-18T14:53:47;32.10;47.00
42989;DHT22;28622;43.716;20.668;2022-07-18T14:56:13;32.10;45.20
42989;DHT22;28622;43.716;20.668;2022-07-18T14:58:40;31.90;44.40
42989;DHT22;28622;43.716;20.668;2022-07-18T15:01:05;31.90;44.50
42989;DHT22;28622;43.716;20.668;2022-07-18T15:03:31;32.00;45.40
42989;DHT22;28622;43.716;20.668;2022-07-18T15:05:57;31.90;46.80
42989;DHT22;28622;43.716;20.668;2022-07-18T15:08:23;31.70;46.30
42989;DHT22;28622;43.716;20.668;2022-07-18T15:10:48;31.60;47.20
42989;DHT22;28622;43.716;20.668;2022-07-18T15:13:14;31.60;48.20
42989;DHT22;28622;43.716;20.668;2022-07-18T15:15:40;31.60;48.10
42989;DHT22;28622;43.716;20.668;2022-07-18T15:18:06;31.40;48.00
42989;DHT22;28622;43.716;20.668;2022-07-18T15:20:32;31.30;48.40
42989;DHT22;28622;43.716;20.668;2022-07-18T15:22:57;31.20;47.70
42989;DHT22;28622;43.716;20.668;2022-07-18T15:25:23;31.00;47.90
42989;DHT22;28622;43.716;20.668;2022-07-18T15:27:49;30.90;47.20
42989;DHT22;28622;43.716;20.668;2022-07-18T15:30:15;30.80;47.80
42989;DHT22;28622;43.716;20.668;2022-07-18T15:32:40;30.80;48.80
42989;DHT22;28622;43.716;20.668;2022-07-18T15:35:06;30.70;48.30
42989;DHT22;28622;43.716;20.668;2022-07-18T15:37:32;30.70;49.60
42989;DHT22;28622;43.716;20.668;2022-07-18T15:39:59;30.60;50.50
42989;DHT22;28622;43.716;20.668;2022-07-18T15:42:27;30.40;49.20
42989;DHT22;28622;43.716;20.668;2022-07-18T15:44:53;30.40;49.30
42989;DHT22;28622;43.716;20.668;2022-07-18T15:47:19;30.30;49.80
42989;DHT22;28622;43.716;20.668;2022-07-18T15:49:45;30.30;50.20
42989;DHT22;28622;43.716;20.668;2022-07-18T15:52:10;30.20;51.10
42989;DHT22;28622;43.716;20.668;2022-07-18T15:54:36;30.20;49.70
42989;DHT22;28622;43.716;20.668;2022-07-18T15:57:03;30.20;50.20
42989;DHT22;28622;43.716;20.668;2022-07-18T15:59:29;30.10;49.90
42989;DHT22;28622;43.716;20.668;2022-07-18T16:01:55;30.00;49.50
42989;DHT22;28622;43.716;20.668;2022-07-18T16:04:21;30.00;50.30
42989;DHT22;28622;43.716;20.668;2022-07-18T16:06:47;30.00;50.00
42989;DHT22;28622;43.716;20.668;2022-07-18T16:09:13;30.00;50.60
42989;DHT22;28622;43.716;20.668;2022-07-18T16:11:39;29.90;51.10
42989;DHT22;28622;43.716;20.668;2022-07-18T16:14:09;29.70;50.70
42989;DHT22;28622;43.716;20.668;2022-07-18T16:16:36;29.60;50.00
42989;DHT22;28622;43.716;20.668;2022-07-18T16:19:04;29.50;51.10
42989;DHT22;28622;43.716;20.668;2022-07-18T16:21:31;29.50;51.10
42989;DHT22;28622;43.716;20.668;2022-07-18T16:23:57;29.50;51.10
42989;DHT22;28622;43.716;20.668;2022-07-18T16:26:23;29.40;50.90